CYSC

Sherbrooke Airport

Sherbrooke, , Canada
METAR CYSC 260300Z AUTO 18003KT 9SM FEW250 01/M02 A2989 RMK SLP134
Observed Flight Rules
Feb-26 @ 03:00 UTC (32 minutes ago) Visual Flight Rules
Wind Visibility Clouds
180° at 3 knots 9 miles
  • Few at 25,000' AGL
Temperatures Readings
Current 1°C / 34°F
Dewpoint -2°C / 28°F
Humidity 81%
Altimeter 29.89" Hg
Pressure 1013.4 hPa
Elevation 241
METAR CYSC 260300Z AUTO 18003KT 9SM FEW250 01/M02 A2989 RMK SLP134
Observed Flight Rules
Feb-26 @ 03:00 UTC
(32 minutes ago)
VFR
Wind Visibility
180° at 3 knots 9 miles
Clouds
  • Few at 25,000' AGL
Temperature Dewpoint
1°C / 34°F -2°C / 28°F
Humidity Altimeter Pressure
81% 29.89" Hg 1013.4 hPa